.
WxDataArchive / Data Records for 2012-10-03
2012-10-02 October 2012 2012-10-04

Data Records for Wednesday, 03 October 2012

Time	Temp	Chill	HIndex	Humid	Dewpt	 Wind 	HiWind	WindDir	Rain 	Barom 
-----	----	-----	------	-----	-----	------	------	-------	-----	----- 
00:00	59.9	59.9	59.9	96	58.8	0	0	---	0.00	29.889 
00:05	59.9	59.9	59.9	96	58.8	0	0	---	0.00	29.889 
00:10	59.9	59.9	59.9	96	58.8	0	0	---	0.00	29.889 
00:15	59.8	59.8	59.8	96	58.7	0	0	---	0.00	29.882 
00:20	59.8	59.8	59.8	96	58.7	0	0	---	0.00	29.882 
00:25	59.8	59.8	59.8	96	58.7	0	0	---	0.00	29.882 
00:30	59.8	59.8	59.8	96	58.7	0	0	---	0.00	29.882 
00:35	59.8	59.8	59.8	96	58.7	0	0	---	0.00	29.882 
00:40	59.8	59.8	59.8	96	58.7	0	0	---	0.00	29.882 
00:45	59.8	59.8	59.8	96	58.7	0	0	---	0.01	29.891 
00:50	59.9	59.9	59.9	96	58.8	0	1	90	0.01	29.891 
00:55	59.9	59.9	59.9	96	58.8	0	0	---	0.01	29.891 
01:00	59.9	59.9	59.9	96	58.8	0	0	---	0.00	29.890 
01:05	59.9	59.9	59.9	96	58.8	0	0	---	0.00	29.890 
01:10	59.9	59.9	59.9	96	58.8	0	0	---	0.00	29.890 
01:15	59.9	59.9	59.9	96	58.8	0	0	---	0.01	29.889 
01:20	59.9	59.9	59.9	96	58.8	0	0	---	0.00	29.889 
01:25	59.9	59.9	59.9	96	58.8	0	0	---	0.00	29.889 
01:30	59.9	59.9	59.9	96	58.8	0	0	---	0.00	29.890 
01:35	59.9	59.9	59.9	96	58.8	0	0	---	0.00	29.890 
01:40	59.9	59.9	59.9	96	58.8	0	0	---	0.00	29.890 
01:45	59.9	59.9	59.9	96	58.8	0	0	---	0.00	29.894 
01:50	59.9	59.9	59.9	96	58.8	0	0	---	0.00	29.894 
01:55	59.9	59.9	59.9	96	58.8	0	0	---	0.00	29.894 
02:00	60.1	60.1	60.1	96	59.0	0	0	---	0.00	29.894 
02:05	60.1	60.1	60.1	96	59.0	0	0	---	0.00	29.894 
02:10	60.1	60.1	60.1	96	59.0	0	1	90	0.00	29.894 
02:15	60.1	60.1	60.1	96	59.0	0	0	---	0.00	29.895 
02:20	60.1	60.1	60.1	96	59.0	0	0	---	0.00	29.895 
02:25	60.1	60.1	60.1	96	59.0	0	0	---	0.00	29.895 
02:30	60.1	60.1	60.1	96	59.0	0	1	90	0.00	29.899 
02:35	60.1	60.1	60.1	96	59.0	0	0	---	0.00	29.899 
02:40	60.1	60.1	60.1	96	59.0	0	1	90	0.00	29.899 
02:45	60.1	60.1	60.1	96	59.0	0	0	---	0.00	29.905 
02:50	60.1	60.1	60.1	96	59.0	0	1	90	0.00	29.905 
02:55	60.1	60.1	60.1	96	59.0	0	2	90	0.00	29.905 
03:00	60.1	60.1	60.1	96	59.0	0	2	90	0.00	29.897 
03:05	60.1	60.1	60.1	96	59.0	0	1	90	0.00	29.897 
03:10	60.1	60.1	60.1	96	59.0	0	1	90	0.00	29.897 
03:15	60.1	60.1	60.1	96	59.0	0	1	90	0.00	29.895 
03:20	59.9	59.9	59.9	96	58.8	0	2	90	0.00	29.895 
03:25	59.9	59.9	59.9	96	58.8	0	0	---	0.00	29.895 
03:30	59.9	59.9	59.9	96	58.8	0	0	---	0.00	29.894 
03:35	59.9	59.9	59.9	96	58.8	0	0	---	0.00	29.894 
03:40	59.9	59.9	59.9	96	58.8	0	0	---	0.00	29.894 
03:45	59.9	59.9	59.9	96	58.8	0	0	---	0.00	29.894 
03:50	59.9	59.9	59.9	96	58.8	0	0	---	0.00	29.894 
03:55	59.9	59.9	59.9	96	58.8	0	0	---	0.00	29.894 
04:00	59.9	59.9	59.9	96	58.8	0	0	---	0.00	29.895 
04:05	59.8	59.8	59.8	96	58.7	0	0	---	0.00	29.895 
04:10	59.8	59.8	59.8	96	58.7	0	0	---	0.00	29.895 
04:15	59.8	59.8	59.8	96	58.7	0	0	---	0.00	29.898 
04:20	59.8	59.8	59.8	96	58.7	0	0	---	0.00	29.898 
04:25	59.8	59.8	59.8	96	58.7	0	0	---	0.00	29.898 
04:30	59.8	59.8	59.8	96	58.7	0	0	---	0.00	29.902 
04:35	59.6	59.6	59.6	96	58.5	0	0	---	0.00	29.902 
04:40	59.6	59.6	59.6	96	58.5	0	0	---	0.00	29.902 
04:45	59.6	59.6	59.6	96	58.5	0	0	---	0.00	29.906 
04:50	59.6	59.6	59.6	96	58.5	0	0	---	0.00	29.906 
04:55	59.5	59.5	59.5	96	58.4	0	0	---	0.00	29.906 
05:00	59.5	59.5	59.5	96	58.4	0	0	---	0.00	29.908 
05:05	59.3	59.3	59.3	96	58.2	0	0	---	0.00	29.908 
05:10	59.3	59.3	59.3	96	58.2	0	0	---	0.00	29.908 
05:15	59.3	59.3	59.3	96	58.2	0	0	---	0.00	29.912 
05:20	59.3	59.3	59.3	96	58.2	0	0	---	0.00	29.912 
05:25	59.3	59.3	59.3	96	58.2	0	0	---	0.00	29.912 
05:30	59.3	59.3	59.3	96	58.2	0	0	---	0.00	29.913 
05:35	59.3	59.3	59.3	96	58.2	0	0	---	0.00	29.913 
05:40	59.3	59.3	59.3	96	58.2	0	0	---	0.00	29.913 
05:45	59.3	59.3	59.3	96	58.2	0	0	---	0.00	29.920 
05:50	59.2	59.2	59.2	96	58.1	0	0	---	0.00	29.920 
05:55	59.3	59.3	59.3	96	58.2	0	0	---	0.00	29.920 
06:00	59.3	59.3	59.3	96	58.2	0	0	---	0.00	29.926 
06:05	59.3	59.3	59.3	96	58.2	0	0	---	0.00	29.926 
06:10	59.3	59.3	59.3	96	58.2	0	0	---	0.00	29.926 
06:15	59.3	59.3	59.3	96	58.2	0	0	---	0.00	29.933 
06:20	59.2	59.2	59.2	96	58.1	0	0	---	0.00	29.933 
06:25	59.2	59.2	59.2	96	58.1	0	0	---	0.00	29.933 
06:30	59.2	59.2	59.2	96	58.1	0	0	---	0.00	29.938 
06:35	59.0	59.0	59.0	96	57.9	0	1	90	0.00	29.938 
06:40	58.9	58.9	58.9	96	57.8	0	0	---	0.00	29.938 
06:45	58.7	58.7	58.7	96	57.6	0	0	---	0.00	29.943 
06:50	58.6	58.6	58.6	96	57.5	0	0	---	0.00	29.943 
06:55	58.4	58.4	58.4	96	57.3	0	2	90	0.00	29.943 
07:00	58.3	58.3	58.3	96	57.2	0	1	90	0.00	29.950 
07:05	58.3	58.3	58.3	96	57.2	0	1	90	0.00	29.950 
07:10	58.1	58.1	58.1	96	57.0	0	0	---	0.00	29.950 
07:15	58.0	58.0	58.0	96	56.9	0	0	---	0.00	29.952 
07:20	58.0	58.0	58.0	96	56.9	0	0	---	0.00	29.952 
07:25	57.8	57.8	57.8	96	56.7	0	0	---	0.00	29.952 
07:30	57.8	57.8	57.8	96	56.7	0	0	---	0.00	29.957 
07:35	57.6	57.6	57.6	96	56.5	0	0	---	0.00	29.957 
07:40	57.6	57.6	57.6	96	56.5	0	0	---	0.00	29.957 
07:45	57.6	57.6	57.6	96	56.5	0	0	---	0.00	29.959 
07:50	57.6	57.6	57.6	96	56.5	0	0	---	0.00	29.959 
07:55	57.5	57.5	57.5	96	56.4	0	0	---	0.00	29.959 
08:00	57.5	57.5	57.5	96	56.4	0	0	---	0.00	29.965 
08:05	57.5	57.5	57.5	96	56.4	0	0	---	0.00	29.965 
08:10	57.5	57.5	57.5	96	56.4	0	0	---	0.00	29.965 
08:15	57.5	57.5	57.5	96	56.4	0	0	---	0.00	29.971 
08:20	57.5	57.5	57.5	96	56.4	0	0	---	0.00	29.971 
08:25	57.5	57.5	57.5	96	56.4	0	0	---	0.00	29.971 
08:30	57.5	57.5	57.5	96	56.4	0	0	---	0.00	29.971 
08:35	57.5	57.5	57.5	96	56.4	0	0	---	0.00	29.971 
08:40	57.5	57.5	57.5	96	56.4	0	0	---	0.00	29.971 
08:45	57.3	57.3	57.3	96	56.2	0	0	---	0.00	29.979 
08:50	57.3	57.3	57.3	96	56.2	0	0	---	0.00	29.979 
08:55	57.3	57.3	57.3	96	56.2	0	0	---	0.00	29.979 
09:00	57.2	57.2	57.2	96	56.1	0	0	---	0.00	29.987 
09:05	57.2	57.2	57.2	96	56.1	0	0	---	0.00	29.987 
09:10	57.3	57.3	57.3	96	56.2	0	0	---	0.00	29.987 
09:15	57.3	57.3	57.3	96	56.2	0	0	---	0.00	29.990 
09:20	57.3	57.3	57.3	96	56.2	0	0	---	0.00	29.990 
09:25	57.5	57.5	57.5	96	56.4	0	1	90	0.00	29.990 
09:30	57.5	57.5	57.5	96	56.4	0	1	90	0.00	29.990 
09:35	57.6	57.6	57.6	96	56.5	0	0	---	0.00	29.990 
09:40	57.8	57.8	57.8	96	56.7	0	0	---	0.00	29.990 
09:45	58.0	58.0	58.0	96	56.9	0	0	---	0.00	29.992 
09:50	58.1	58.1	58.1	96	57.0	0	0	---	0.00	29.992 
09:55	58.1	58.1	58.1	96	57.0	0	2	90	0.00	29.992 
10:00	58.1	58.1	58.1	96	57.0	0	0	---	0.00	30.001 
10:05	58.0	58.0	58.0	96	56.9	0	0	---	0.00	30.001 
10:10	58.1	58.1	58.1	96	57.0	0	2	90	0.00	30.001 
10:15	58.3	58.3	58.3	96	57.2	0	1	90	0.00	30.003 
10:20	58.3	58.3	58.3	95	56.9	0	1	90	0.00	30.003 
10:25	58.3	58.3	58.3	95	56.9	0	2	90	0.00	30.003 
10:30	58.3	58.3	58.3	95	56.9	0	3	90	0.00	30.004 
10:35	58.4	58.4	58.4	95	57.0	0	0	---	0.00	30.004 
10:40	58.4	58.4	58.4	94	56.7	0	2	225	0.00	30.004 
10:45	58.6	58.6	58.6	94	56.9	0	2	225	0.00	30.004 
10:50	58.7	58.7	58.7	94	57.0	0	1	225	0.00	30.004 
10:55	58.9	58.9	58.9	93	56.9	0	2	225	0.00	30.004 
11:00	58.9	58.9	58.9	93	56.9	0	3	225	0.00	30.004 
11:05	58.9	58.9	58.9	92	56.6	0	1	0	0.00	30.004 
11:10	59.0	59.0	59.0	92	56.7	0	2	248	0.00	30.004 
11:15	59.0	59.0	59.0	91	56.4	0	1	248	0.00	30.005 
11:20	59.2	59.2	59.2	91	56.6	0	2	248	0.00	30.005 
11:25	59.3	59.3	59.3	90	56.4	0	1	248	0.00	30.005 
11:30	59.5	59.5	59.5	89	56.3	0	3	270	0.00	30.005 
11:35	59.6	59.6	59.6	88	56.0	0	1	270	0.00	30.005 
11:40	59.6	59.6	59.6	88	56.0	0	2	270	0.00	30.005 
11:45	59.6	59.6	59.6	87	55.7	0	3	338	0.00	30.005 
11:50	59.6	59.6	59.6	87	55.7	1	4	292	0.00	30.005 
11:55	59.5	59.5	59.5	86	55.3	0	5	270	0.00	30.005 
12:00	59.5	59.5	59.5	86	55.3	0	4	112	0.00	30.009 
12:05	59.6	59.6	59.6	85	55.1	0	2	90	0.00	30.009 
12:10	59.8	59.8	59.8	85	55.3	0	3	90	0.00	30.009 
12:15	59.8	59.8	59.8	84	55.0	0	3	45	0.00	30.011 
12:20	59.8	59.8	59.8	84	55.0	0	3	248	0.00	30.011 
12:25	59.9	59.9	59.9	83	54.7	0	3	90	0.00	30.011 
12:30	60.2	60.2	60.2	83	55.0	0	3	68	0.00	30.010 
12:35	60.7	60.7	60.7	83	55.5	1	3	248	0.00	30.010 
12:40	60.9	60.9	60.9	81	55.0	1	3	248	0.00	30.010 
12:45	60.9	60.9	60.9	80	54.7	1	3	90	0.00	30.013 
12:50	60.7	60.7	60.7	80	54.5	0	3	68	0.00	30.013 
12:55	60.7	60.7	60.7	80	54.5	1	4	248	0.00	30.013 
13:00	60.7	60.7	60.7	80	54.5	0	5	248	0.00	30.015 
13:05	60.9	60.9	60.9	80	54.7	1	3	248	0.00	30.015 
13:10	60.9	60.9	60.9	80	54.7	0	3	135	0.00	30.015 
13:15	60.9	60.9	60.9	80	54.7	1	5	270	0.00	30.015 
13:20	60.7	60.7	60.7	80	54.5	0	3	248	0.00	30.015 
13:25	61.0	61.0	61.0	81	55.1	0	3	68	0.00	30.015 
13:30	61.3	61.3	61.3	79	54.7	1	4	270	0.00	30.015 
13:35	61.5	61.5	61.5	79	54.9	1	3	292	0.00	30.015 
13:40	61.5	61.5	61.5	79	54.9	1	4	248	0.00	30.015 
13:45	61.3	61.3	61.3	79	54.7	1	3	248	0.00	30.008 
13:50	61.2	61.2	61.2	79	54.6	1	4	248	0.00	30.008 
13:55	61.2	61.2	61.2	79	54.6	0	3	248	0.00	30.008 
14:00	61.0	61.0	61.0	79	54.4	1	6	248	0.00	30.010 
14:05	60.9	60.9	60.9	80	54.7	0	2	248	0.00	30.010 
14:10	60.7	60.7	60.7	80	54.5	0	2	270	0.00	30.010 
14:15	60.7	60.7	60.7	81	54.8	0	1	270	0.00	30.003 
14:20	60.9	60.9	60.9	81	55.0	0	2	270	0.00	30.003 
14:25	61.0	61.0	61.0	81	55.1	0	2	248	0.00	30.003 
14:30	61.0	61.0	61.0	81	55.1	1	3	270	0.00	30.002 
14:35	61.0	61.0	61.0	81	55.1	0	3	248	0.00	30.002 
14:40	61.0	61.0	61.0	80	54.8	0	3	270	0.00	30.002 
14:45	60.9	60.9	60.9	81	55.0	0	2	292	0.00	30.003 
14:50	61.0	61.0	61.0	81	55.1	0	3	315	0.00	30.003 
14:55	61.2	61.2	61.2	81	55.3	0	2	225	0.00	30.003 
15:00	61.3	61.3	61.3	81	55.4	0	4	270	0.00	30.003 
15:05	61.3	61.3	61.3	81	55.4	0	1	292	0.00	30.003 
15:10	61.3	61.3	61.3	80	55.1	1	3	315	0.00	30.003 
15:15	61.3	61.3	61.3	80	55.1	0	3	292	0.00	30.004 
15:20	61.3	61.3	61.3	81	55.4	0	4	248	0.00	30.004 
15:25	61.3	61.3	61.3	80	55.1	1	5	248	0.00	30.004 
15:30	61.2	61.2	61.2	80	55.0	0	2	270	0.00	30.005 
15:35	61.2	61.2	61.2	80	55.0	0	1	270	0.00	30.005 
15:40	61.3	61.3	61.3	81	55.4	0	2	292	0.00	30.005 
15:45	61.5	61.5	61.5	80	55.3	0	1	338	0.00	30.002 
15:50	61.8	61.8	61.8	80	55.6	0	1	338	0.00	30.002 
15:55	62.0	62.0	62.0	80	55.8	0	2	338	0.00	30.002 
16:00	62.1	62.1	62.1	79	55.5	0	3	292	0.00	30.002 
16:05	62.4	62.4	62.4	79	55.8	0	4	270	0.00	30.002 
16:10	62.6	62.6	62.6	78	55.6	0	3	248	0.00	30.002 
16:15	62.7	62.7	62.7	77	55.4	1	3	248	0.00	30.001 
16:20	62.7	62.7	62.7	77	55.4	0	2	248	0.00	30.001 
16:25	62.7	62.7	62.7	77	55.4	1	4	248	0.00	30.001 
16:30	62.9	62.9	62.9	76	55.2	1	3	45	0.00	29.997 
16:35	62.9	62.9	62.9	75	54.8	1	6	248	0.00	29.997 
16:40	63.2	63.2	63.2	76	55.5	0	1	270	0.00	29.997 
16:45	63.4	63.4	63.4	75	55.3	0	4	90	0.00	29.997 
16:50	63.9	63.9	63.9	75	55.8	1	3	248	0.00	29.997 
16:55	64.2	64.2	64.2	73	55.4	1	4	68	0.00	29.997 
17:00	64.3	64.3	64.3	73	55.5	1	3	68	0.00	30.000 
17:05	64.3	64.3	64.3	72	55.1	1	4	248	0.00	30.000 
17:10	64.2	64.2	64.2	73	55.4	0	2	248	0.00	30.000 
17:15	64.0	64.0	64.0	73	55.2	0	2	248	0.00	30.006 
17:20	63.9	63.9	63.9	73	55.1	0	1	248	0.00	30.006 
17:25	63.9	63.9	63.9	74	55.4	0	2	248	0.00	30.006 
17:30	63.7	63.7	63.7	73	54.9	0	3	248	0.00	30.005 
17:35	63.7	63.7	63.7	74	55.3	0	2	248	0.00	30.005 
17:40	63.7	63.7	63.7	74	55.3	0	2	270	0.00	30.005 
17:45	63.7	63.7	63.7	74	55.3	0	1	270	0.00	30.015 
17:50	63.7	63.7	63.7	73	54.9	1	4	270	0.00	30.015 
17:55	63.7	63.7	63.7	73	54.9	0	1	248	0.00	30.015 
18:00	63.7	63.7	63.7	72	54.5	0	2	248	0.00	30.014 
18:05	63.7	63.7	63.7	70	53.7	1	3	248	0.00	30.014 
18:10	63.7	63.7	63.7	70	53.7	1	2	270	0.00	30.014 
18:15	63.7	63.7	63.7	70	53.7	0	2	270	0.00	30.017 
18:20	63.7	63.7	63.7	69	53.3	0	3	270	0.00	30.017 
18:25	63.7	63.7	63.7	69	53.3	1	3	270	0.00	30.017 
18:30	63.7	63.7	63.7	69	53.3	0	2	270	0.00	30.019 
18:35	63.7	63.7	63.7	69	53.3	0	1	270	0.00	30.019 
18:40	63.7	63.7	63.7	69	53.3	0	2	270	0.00	30.019 
18:45	63.7	63.7	63.7	70	53.7	0	1	270	0.00	30.022 
18:50	63.7	63.7	63.7	70	53.7	0	1	270	0.00	30.022 
18:55	63.7	63.7	63.7	70	53.7	0	1	270	0.00	30.022 
19:00	63.5	63.5	63.5	71	53.9	0	2	270	0.00	30.023 
19:05	63.5	63.5	63.5	71	53.9	0	1	270	0.00	30.023 
19:10	63.4	63.4	63.4	71	53.8	0	0	---	0.00	30.023 
19:15	63.4	63.4	63.4	71	53.8	0	1	270	0.00	30.026 
19:20	63.2	63.2	63.2	72	54.0	0	1	270	0.00	30.026 
19:25	63.1	63.1	63.1	72	53.9	0	1	270	0.00	30.026 
19:30	62.9	62.9	62.9	72	53.7	0	0	---	0.00	30.025 
19:35	62.6	62.6	62.6	72	53.4	0	0	---	0.00	30.025 
19:40	62.4	62.4	62.4	72	53.2	0	0	---	0.00	30.025 
19:45	62.1	62.1	62.1	73	53.3	0	0	---	0.00	30.029 
19:50	61.8	61.8	61.8	73	53.0	0	0	---	0.00	30.029 
19:55	61.6	61.6	61.6	73	52.9	0	0	---	0.00	30.029 
20:00	61.3	61.3	61.3	73	52.6	0	0	---	0.00	30.031 
20:05	61.2	61.2	61.2	74	52.8	0	0	---	0.00	30.031 
20:10	60.9	60.9	60.9	74	52.6	0	0	---	0.00	30.031 
20:15	60.7	60.7	60.7	75	52.7	0	0	---	0.00	30.036 
20:20	60.4	60.4	60.4	76	52.8	0	0	---	0.00	30.036 
20:25	60.1	60.1	60.1	77	52.9	0	0	---	0.00	30.036 
20:30	59.9	59.9	59.9	78	53.0	0	0	---	0.00	30.037 
20:35	59.8	59.8	59.8	78	52.9	0	0	---	0.00	30.037 
20:40	59.6	59.6	59.6	78	52.7	0	0	---	0.00	30.037 
20:45	59.6	59.6	59.6	78	52.7	0	0	---	0.00	30.037 
20:50	59.6	59.6	59.6	78	52.7	0	1	270	0.00	30.037 
20:55	59.9	59.9	59.9	77	52.7	0	1	270	0.00	30.037 
21:00	60.2	60.2	60.2	76	52.6	0	1	270	0.00	30.038 
21:05	60.5	60.5	60.5	75	52.5	0	1	270	0.00	30.038 
21:10	60.9	60.9	60.9	74	52.6	0	0	---	0.00	30.038 
21:15	61.0	61.0	61.0	74	52.6	0	0	---	0.00	30.039 
21:20	61.2	61.2	61.2	73	52.5	0	1	270	0.00	30.039 
21:25	61.2	61.2	61.2	73	52.5	0	1	270	0.00	30.039 
21:30	61.2	61.2	61.2	73	52.5	0	0	---	0.00	30.046 
21:35	61.0	61.0	61.0	73	52.3	0	1	270	0.00	30.046 
21:40	60.7	60.7	60.7	74	52.4	0	0	---	0.00	30.046 
21:45	60.5	60.5	60.5	74	52.2	0	0	---	0.00	30.047 
21:50	60.2	60.2	60.2	74	51.9	0	0	---	0.00	30.047 
21:55	60.1	60.1	60.1	75	52.1	0	0	---	0.00	30.047 
22:00	59.8	59.8	59.8	75	51.9	0	0	---	0.00	30.051 
22:05	59.6	59.6	59.6	75	51.7	0	0	---	0.00	30.051 
22:10	59.3	59.3	59.3	76	51.7	0	0	---	0.00	30.051 
22:15	59.0	59.0	59.0	76	51.4	0	0	---	0.00	30.051 
22:20	58.7	58.7	58.7	77	51.5	0	0	---	0.00	30.051 
22:25	58.4	58.4	58.4	78	51.6	0	0	---	0.00	30.051 
22:30	58.0	58.0	58.0	79	51.5	0	0	---	0.00	30.052 
22:35	57.6	57.6	57.6	80	51.5	0	0	---	0.00	30.052 
22:40	57.2	57.2	57.2	80	51.1	0	0	---	0.00	30.052 
22:45	56.9	56.9	56.9	81	51.1	0	0	---	0.00	30.054 
22:50	56.6	56.6	56.6	82	51.2	0	0	---	0.00	30.054 
22:55	56.2	56.2	56.2	83	51.1	0	0	---	0.00	30.054 
23:00	55.9	55.9	55.9	84	51.1	0	0	---	0.00	30.057 
23:05	55.6	55.6	55.6	84	50.8	0	0	---	0.00	30.057 
23:10	55.3	55.3	55.3	85	50.9	0	0	---	0.00	30.057 
23:15	55.1	55.1	55.1	86	51.0	0	0	---	0.00	30.058 
23:20	55.0	55.0	55.0	86	50.9	0	0	---	0.00	30.058 
23:25	54.7	54.7	54.7	87	50.9	0	0	---	0.00	30.058 
23:30	54.5	54.5	54.5	87	50.7	0	0	---	0.00	30.058 
23:35	54.4	54.4	54.4	87	50.6	0	0	---	0.00	30.058 
23:40	54.4	54.4	54.4	87	50.6	0	0	---	0.00	30.058 
23:45	54.2	54.2	54.2	87	50.4	0	0	---	0.00	30.061 
23:50	54.2	54.2	54.2	88	50.7	0	0	---	0.00	30.061 
23:55	54.2	54.2	54.2	88	50.7	0	0	---	0.00	30.061 

CoCoRaHS
IN-AL-39
A2 Web Hosting
Creative Commons License
GoDaddy
search engine by freefind advanced

loaded 2018-11-20 09:06:46 • last modified 2010-11-18 10:43:29
Privacy PolicyDisclaimer
• wx.awcolley.com is powered by PmWiki v.2002016 •
• all content (unless otherwise noted) © 2018 A W Colley